Time,TemperatureF,DewpointF,PressureIn,WindDirection,WindDirectionDegrees,WindSpeedMPH,WindSpeedGustMPH,Humidity,HourlyPrecipIn,Conditions,Clouds,dailyrainin,SoftwareType,DateUTC
2013-03-29 00:02:00,55.6,54.1,30.09,SE,135,2.0,0.0,95,0.00,,,0.00,meteohub,2013-03-29 07:02:00,
2013-03-29 00:07:00,55.8,54.3,30.08,SE,135,0.0,2.0,95,0.00,,,0.00,meteohub,2013-03-29 07:07:00,
2013-03-29 00:12:00,55.8,54.3,30.08,SE,135,0.0,2.0,95,0.00,,,0.00,meteohub,2013-03-29 07:12:00,
2013-03-29 00:17:00,55.4,54.0,30.08,SE,135,0.0,2.0,95,0.00,,,0.00,meteohub,2013-03-29 07:17:00,
2013-03-29 00:22:00,55.2,53.8,30.08,SE,135,0.0,2.0,95,0.00,,,0.00,meteohub,2013-03-29 07:22:00,
2013-03-29 00:27:00,55.4,54.3,30.09,SE,135,0.0,2.0,96,0.00,,,0.00,meteohub,2013-03-29 07:27:00,
2013-03-29 00:32:00,55.4,54.3,30.09,SE,135,0.0,2.0,96,0.00,,,0.00,meteohub,2013-03-29 07:32:00,
2013-03-29 00:37:00,55.6,54.5,30.09,SE,135,0.0,2.0,96,0.00,,,0.00,meteohub,2013-03-29 07:37:00,
2013-03-29 00:42:00,55.6,54.5,30.09,SE,135,0.0,2.0,96,0.00,,,0.00,meteohub,2013-03-29 07:42:00,
2013-03-29 00:47:00,55.6,54.5,30.09,SE,135,0.0,2.0,96,0.00,,,0.00,meteohub,2013-03-29 07:47:00,
2013-03-29 00:52:00,55.2,54.1,30.09,SE,135,0.0,2.0,96,0.00,,,0.00,meteohub,2013-03-29 07:52:00,
2013-03-29 00:57:00,55.4,54.3,30.09,SE,135,1.0,2.0,96,0.00,,,0.00,meteohub,2013-03-29 07:57:00,
2013-03-29 01:02:00,55.6,54.5,30.09,SE,135,2.0,2.0,96,0.00,,,0.00,meteohub,2013-03-29 08:02:00,
2013-03-29 01:07:00,55.8,54.9,30.09,SE,135,2.0,2.0,97,0.00,,,0.00,meteohub,2013-03-29 08:07:00,
2013-03-29 01:12:00,55.8,54.9,30.09,SE,135,1.0,2.0,97,0.00,,,0.00,meteohub,2013-03-29 08:12:00,
2013-03-29 01:17:00,55.6,54.7,30.09,SE,135,1.0,2.0,97,0.00,,,0.00,meteohub,2013-03-29 08:17:00,
2013-03-29 01:22:00,55.6,54.7,30.09,West,270,2.0,2.0,97,0.00,,,0.00,meteohub,2013-03-29 08:22:00,
2013-03-29 01:27:00,55.6,55.0,30.09,West,270,1.0,2.0,98,0.00,,,0.00,meteohub,2013-03-29 08:27:00,
2013-03-29 01:32:00,55.6,55.0,30.09,West,270,2.0,2.0,98,0.00,,,0.00,meteohub,2013-03-29 08:32:00,
2013-03-29 01:37:00,55.4,54.9,30.09,West,270,0.0,2.0,98,0.00,,,0.00,meteohub,2013-03-29 08:37:00,
2013-03-29 01:42:00,55.2,54.7,30.09,West,270,0.0,2.0,98,0.00,,,0.00,meteohub,2013-03-29 08:42:00,
2013-03-29 01:47:00,55.2,54.9,30.09,West,270,2.0,2.0,99,0.00,,,0.00,meteohub,2013-03-29 08:47:00,
2013-03-29 01:52:00,55.2,54.9,30.09,West,270,2.0,2.0,99,0.00,,,0.00,meteohub,2013-03-29 08:52:00,
2013-03-29 01:57:00,55.2,54.9,30.09,South,180,2.0,2.0,99,0.00,,,0.00,meteohub,2013-03-29 08:57:00,
2013-03-29 02:02:00,55.0,54.7,30.09,South,180,0.0,2.0,99,0.00,,,0.00,meteohub,2013-03-29 09:02:00,
2013-03-29 02:07:00,54.9,54.5,30.10,South,180,1.0,2.0,99,0.00,,,0.00,meteohub,2013-03-29 09:07:00,
2013-03-29 02:12:00,55.0,54.7,30.09,South,180,1.0,2.0,99,0.00,,,0.00,meteohub,2013-03-29 09:12:00,
2013-03-29 02:17:00,55.0,54.7,30.09,South,180,2.0,2.0,99,0.00,,,0.00,meteohub,2013-03-29 09:17:00,
2013-03-29 02:22:00,55.2,54.9,30.10,South,180,0.0,2.0,99,0.00,,,0.00,meteohub,2013-03-29 09:22:00,
2013-03-29 02:27:00,55.2,54.9,30.09,South,180,1.0,2.0,99,0.00,,,0.00,meteohub,2013-03-29 09:27:00,
2013-03-29 02:32:00,55.2,54.9,30.09,South,180,0.0,2.0,99,0.00,,,0.00,meteohub,2013-03-29 09:32:00,
2013-03-29 02:37:00,55.2,54.9,30.09,South,180,0.0,1.0,99,0.00,,,0.00,meteohub,2013-03-29 09:37:00,
2013-03-29 02:42:00,55.4,55.0,30.09,South,180,2.0,2.0,99,0.00,,,0.00,meteohub,2013-03-29 09:42:00,
2013-03-29 02:48:00,55.6,55.2,30.09,South,180,2.0,2.0,99,0.00,,,0.00,meteohub,2013-03-29 09:48:00,
2013-03-29 02:53:00,55.8,55.4,30.09,South,180,0.0,2.0,99,0.00,,,0.00,meteohub,2013-03-29 09:53:00,
2013-03-29 02:58:00,56.1,55.8,30.09,South,180,3.0,3.0,99,0.00,,,0.00,meteohub,2013-03-29 09:58:00,
2013-03-29 03:03:00,56.5,56.1,30.08,South,180,3.0,3.0,99,0.00,,,0.00,meteohub,2013-03-29 10:03:00,
2013-03-29 03:08:00,56.8,56.5,30.08,NW,315,2.0,3.0,99,0.00,,,0.00,meteohub,2013-03-29 10:08:00,
2013-03-29 03:13:00,57.0,56.7,30.08,West,270,3.0,4.0,99,0.00,,,0.00,meteohub,2013-03-29 10:13:00,
2013-03-29 03:18:00,57.0,56.7,30.08,West,270,2.0,4.0,99,0.00,,,0.00,meteohub,2013-03-29 10:18:00,
2013-03-29 03:23:00,57.0,56.7,30.08,West,270,2.0,4.0,99,0.00,,,0.00,meteohub,2013-03-29 10:23:00,
2013-03-29 03:28:00,57.0,56.7,30.08,West,270,2.0,4.0,99,0.00,,,0.00,meteohub,2013-03-29 10:28:00,
2013-03-29 03:33:00,57.2,56.8,30.08,West,270,3.0,3.0,99,0.00,,,0.00,meteohub,2013-03-29 10:33:00,
2013-03-29 03:38:00,57.2,56.8,30.08,West,270,1.0,3.0,99,0.00,,,0.00,meteohub,2013-03-29 10:38:00,
2013-03-29 03:43:00,57.2,56.8,30.08,West,270,2.0,3.0,99,0.00,,,0.00,meteohub,2013-03-29 10:43:00,
2013-03-29 03:48:00,57.2,56.8,30.08,West,270,4.0,4.0,99,0.00,,,0.00,meteohub,2013-03-29 10:48:00,
2013-03-29 03:53:00,57.4,57.0,30.07,West,270,1.0,4.0,99,0.00,,,0.00,meteohub,2013-03-29 10:53:00,
2013-03-29 03:58:00,57.4,57.0,30.07,West,270,4.0,4.0,99,0.00,,,0.00,meteohub,2013-03-29 10:58:00,
2013-03-29 04:03:00,57.4,56.8,30.07,West,270,2.0,4.0,98,0.00,,,0.00,meteohub,2013-03-29 11:03:00,
2013-03-29 04:08:00,57.4,56.8,30.07,West,270,3.0,4.0,98,0.00,,,0.00,meteohub,2013-03-29 11:08:00,
2013-03-29 04:13:00,57.4,56.8,30.07,West,270,2.0,4.0,98,0.00,,,0.00,meteohub,2013-03-29 11:13:00,
2013-03-29 04:18:00,57.4,56.8,30.07,West,270,3.0,4.0,98,0.00,,,0.00,meteohub,2013-03-29 11:18:00,
2013-03-29 04:23:00,57.4,56.8,30.08,SW,225,3.0,6.0,98,0.00,,,0.00,meteohub,2013-03-29 11:23:00,
2013-03-29 04:28:00,57.4,56.8,30.08,West,270,1.0,6.0,98,0.00,,,0.00,meteohub,2013-03-29 11:28:00,
2013-03-29 04:33:00,57.4,56.5,30.07,South,180,2.0,6.0,97,0.00,,,0.00,meteohub,2013-03-29 11:33:00,
2013-03-29 04:38:00,57.2,56.3,30.07,SE,135,3.0,5.0,97,0.00,,,0.00,meteohub,2013-03-29 11:38:00,
2013-03-29 04:43:00,57.2,56.3,30.08,South,180,2.0,5.0,97,0.00,,,0.00,meteohub,2013-03-29 11:43:00,
2013-03-29 04:48:00,57.4,56.5,30.08,South,180,2.0,5.0,97,0.00,,,0.00,meteohub,2013-03-29 11:48:00,
2013-03-29 04:53:00,57.4,56.8,30.08,South,180,2.0,4.0,98,0.00,,,0.00,meteohub,2013-03-29 11:53:00,
2013-03-29 04:58:00,57.4,56.8,30.09,West,270,4.0,4.0,98,0.00,,,0.00,meteohub,2013-03-29 11:58:00,
2013-03-29 05:03:00,57.4,56.5,30.09,West,270,2.0,4.0,97,0.00,,,0.00,meteohub,2013-03-29 12:03:00,
2013-03-29 05:08:00,57.4,56.5,30.09,West,270,3.0,6.0,97,0.00,,,0.00,meteohub,2013-03-29 12:08:00,
2013-03-29 05:13:00,57.4,56.5,30.09,West,270,2.0,6.0,97,0.00,,,0.00,meteohub,2013-03-29 12:13:00,
2013-03-29 05:18:00,57.4,56.5,30.09,West,270,4.0,6.0,97,0.00,,,0.00,meteohub,2013-03-29 12:18:00,
2013-03-29 05:23:00,57.2,56.3,30.09,West,270,2.0,6.0,97,0.00,,,0.00,meteohub,2013-03-29 12:23:00,
2013-03-29 05:28:00,57.4,56.5,30.09,West,270,1.0,6.0,97,0.00,,,0.00,meteohub,2013-03-29 12:28:00,
2013-03-29 05:33:00,57.2,56.3,30.09,West,270,1.0,6.0,97,0.00,,,0.00,meteohub,2013-03-29 12:33:00,
2013-03-29 05:38:00,57.2,56.3,30.09,West,270,1.0,3.0,97,0.00,,,0.00,meteohub,2013-03-29 12:38:00,
2013-03-29 05:43:00,57.2,56.3,30.09,West,270,0.0,3.0,97,0.00,,,0.00,meteohub,2013-03-29 12:43:00,
2013-03-29 05:48:00,57.2,56.3,30.09,SW,225,2.0,3.0,97,0.00,,,0.00,meteohub,2013-03-29 12:48:00,
2013-03-29 05:53:00,57.2,56.7,30.09,SW,225,2.0,3.0,98,0.00,,,0.00,meteohub,2013-03-29 12:53:00,
2013-03-29 05:58:00,57.2,56.3,30.09,South,180,0.0,3.0,97,0.00,,,0.00,meteohub,2013-03-29 12:58:00,
2013-03-29 06:03:00,57.2,56.3,30.09,South,180,2.0,3.0,97,0.00,,,0.00,meteohub,2013-03-29 13:03:00,
2013-03-29 06:09:00,57.2,56.7,30.10,South,180,0.0,3.0,98,0.00,,,0.00,meteohub,2013-03-29 13:09:00,
2013-03-29 06:14:00,57.2,56.7,30.10,West,270,4.0,4.0,98,0.00,,,0.00,meteohub,2013-03-29 13:14:00,
2013-03-29 06:19:00,57.2,56.3,30.10,West,270,6.0,6.0,97,0.00,,,0.00,meteohub,2013-03-29 13:19:00,
2013-03-29 06:24:00,57.0,56.1,30.10,West,270,1.0,4.0,97,0.00,,,0.00,meteohub,2013-03-29 13:24:00,
2013-03-29 06:29:00,57.0,56.1,30.10,West,270,2.0,6.0,97,0.00,,,0.00,meteohub,2013-03-29 13:29:00,
2013-03-29 06:34:00,57.0,56.1,30.10,West,270,2.0,6.0,97,0.00,,,0.00,meteohub,2013-03-29 13:34:00,
2013-03-29 06:39:00,57.0,56.1,30.10,West,270,1.0,3.0,97,0.00,,,0.00,meteohub,2013-03-29 13:39:00,
2013-03-29 06:44:00,57.0,56.5,30.10,North,0,2.0,3.0,98,0.00,,,0.00,meteohub,2013-03-29 13:44:00,
2013-03-29 06:49:00,57.0,56.5,30.10,North,0,2.0,4.0,98,0.00,,,0.00,meteohub,2013-03-29 13:49:00,
2013-03-29 06:54:00,57.0,56.5,30.11,North,0,1.0,4.0,98,0.00,,,0.00,meteohub,2013-03-29 13:54:00,
2013-03-29 06:59:00,57.0,56.5,30.11,North,0,0.0,4.0,98,0.00,,,0.00,meteohub,2013-03-29 13:59:00,
2013-03-29 07:04:00,57.0,56.5,30.11,North,0,0.0,2.0,98,0.00,,,0.00,meteohub,2013-03-29 14:04:00,
2013-03-29 07:09:00,57.0,56.5,30.11,North,0,0.0,2.0,98,0.00,,,0.00,meteohub,2013-03-29 14:09:00,
2013-03-29 07:14:00,57.2,56.7,30.11,North,0,0.0,0.0,98,0.00,,,0.00,meteohub,2013-03-29 14:14:00,
2013-03-29 07:19:00,57.2,56.7,30.11,SE,135,2.0,0.0,98,0.00,,,0.00,meteohub,2013-03-29 14:19:00,
2013-03-29 07:24:00,57.2,56.7,30.11,SE,135,0.0,3.0,98,0.00,,,0.00,meteohub,2013-03-29 14:24:00,
2013-03-29 07:29:00,57.2,56.3,30.12,SE,135,1.0,4.0,97,0.00,,,0.00,meteohub,2013-03-29 14:29:00,
2013-03-29 07:34:00,57.4,56.5,30.12,SE,135,2.0,4.0,97,0.00,,,0.00,meteohub,2013-03-29 14:34:00,
2013-03-29 07:39:00,57.4,56.5,30.12,SE,135,2.0,4.0,97,0.00,,,0.00,meteohub,2013-03-29 14:39:00,
2013-03-29 07:44:00,57.6,56.5,30.12,SSE,158,2.0,3.0,96,0.00,,,0.00,meteohub,2013-03-29 14:44:00,
2013-03-29 07:49:00,57.6,56.5,30.12,SE,135,2.0,4.0,96,0.00,,,0.00,meteohub,2013-03-29 14:49:00,
2013-03-29 07:54:00,57.6,56.5,30.12,SE,135,0.0,4.0,96,0.00,,,0.00,meteohub,2013-03-29 14:54:00,
2013-03-29 07:59:00,57.7,56.7,30.12,SE,135,0.0,4.0,96,0.00,,,0.00,meteohub,2013-03-29 14:59:00,
2013-03-29 08:04:00,57.9,56.8,30.12,SE,135,2.0,2.0,96,0.00,,,0.00,meteohub,2013-03-29 15:04:00,
2013-03-29 08:09:00,58.1,56.7,30.12,SE,135,2.0,3.0,95,0.00,,,0.00,meteohub,2013-03-29 15:09:00,
2013-03-29 08:14:00,58.1,56.7,30.12,SE,135,3.0,4.0,95,0.00,,,0.00,meteohub,2013-03-29 15:14:00,
2013-03-29 08:19:00,58.3,56.5,30.12,SE,135,3.0,4.0,94,0.00,,,0.00,meteohub,2013-03-29 15:19:00,
2013-03-29 08:24:00,58.3,56.3,30.12,East,90,4.0,4.0,93,0.00,,,0.00,meteohub,2013-03-29 15:24:00,
2013-03-29 08:29:00,58.5,56.5,30.12,SE,135,2.0,4.0,93,0.00,,,0.00,meteohub,2013-03-29 15:29:00,
2013-03-29 08:34:00,58.5,56.1,30.12,SE,135,4.0,5.0,92,0.00,,,0.00,meteohub,2013-03-29 15:34:00,
2013-03-29 08:39:00,58.5,56.1,30.12,SSE,158,2.0,6.0,92,0.00,,,0.00,meteohub,2013-03-29 15:39:00,
2013-03-29 08:44:00,59.0,56.7,30.11,SSE,158,4.0,6.0,92,0.00,,,0.00,meteohub,2013-03-29 15:44:00,
2013-03-29 08:49:00,59.2,56.8,30.11,South,180,4.0,6.0,92,0.00,,,0.00,meteohub,2013-03-29 15:49:00,
2013-03-29 08:54:00,59.4,56.7,30.12,SE,135,2.0,5.0,91,0.00,,,0.00,meteohub,2013-03-29 15:54:00,
2013-03-29 08:59:00,59.7,56.8,30.12,ENE,68,2.0,5.0,90,0.00,,,0.00,meteohub,2013-03-29 15:59:00,
2013-03-29 09:04:00,60.1,56.8,30.12,NE,45,2.0,4.0,89,0.00,,,0.00,meteohub,2013-03-29 16:04:00,
2013-03-29 09:09:00,60.3,56.7,30.12,East,90,6.0,6.0,88,0.00,,,0.00,meteohub,2013-03-29 16:09:00,
2013-03-29 09:14:00,60.1,55.9,30.12,East,90,6.0,6.0,86,0.00,,,0.00,meteohub,2013-03-29 16:14:00,
2013-03-29 09:19:00,60.6,57.0,30.12,East,90,2.0,7.0,88,0.00,,,0.00,meteohub,2013-03-29 16:19:00,
2013-03-29 09:24:00,61.5,57.6,30.12,East,90,1.0,7.0,87,0.00,,,0.00,meteohub,2013-03-29 16:24:00,
2013-03-29 09:29:00,62.1,56.8,30.12,SE,135,4.0,7.0,83,0.00,,,0.00,meteohub,2013-03-29 16:29:00,
2013-03-29 09:34:00,61.9,56.7,30.12,SW,225,2.0,5.0,83,0.00,,,0.00,meteohub,2013-03-29 16:34:00,
2013-03-29 09:39:00,62.8,56.5,30.12,South,180,4.0,7.0,80,0.00,,,0.00,meteohub,2013-03-29 16:39:00,
2013-03-29 09:44:00,63.3,56.7,30.12,South,180,3.0,7.0,79,0.00,,,0.00,meteohub,2013-03-29 16:44:00,
2013-03-29 09:49:00,65.3,58.6,30.12,SE,135,3.0,7.0,79,0.00,,,0.00,meteohub,2013-03-29 16:49:00,
2013-03-29 09:54:00,68.0,58.3,30.12,NW,315,3.0,4.0,71,0.00,,,0.00,meteohub,2013-03-29 16:54:00,
2013-03-29 09:59:00,68.4,58.6,30.12,North,0,2.0,4.0,71,0.00,,,0.00,meteohub,2013-03-29 16:59:00,
2013-03-29 10:04:00,68.9,57.6,30.11,NE,45,3.0,4.0,67,0.00,,,0.00,meteohub,2013-03-29 17:04:00,
2013-03-29 10:09:00,69.6,57.7,30.11,NE,45,4.0,4.0,66,0.00,,,0.00,meteohub,2013-03-29 17:09:00,
2013-03-29 10:14:00,69.8,57.9,30.12,North,0,3.0,5.0,66,0.00,,,0.00,meteohub,2013-03-29 17:14:00,
2013-03-29 10:19:00,70.3,57.6,30.12,NW,315,4.0,5.0,64,0.00,,,0.00,meteohub,2013-03-29 17:19:00,
2013-03-29 10:24:00,69.4,57.2,30.12,West,270,2.0,4.0,65,0.00,,,0.00,meteohub,2013-03-29 17:24:00,
2013-03-29 10:29:00,69.6,57.7,30.12,NW,315,2.0,4.0,66,0.00,,,0.00,meteohub,2013-03-29 17:29:00,
2013-03-29 10:34:00,69.8,57.6,30.12,NW,315,4.0,4.0,65,0.00,,,0.00,meteohub,2013-03-29 17:34:00,
2013-03-29 10:39:00,69.3,57.9,30.12,NNW,338,4.0,7.0,67,0.00,,,0.00,meteohub,2013-03-29 17:39:00,
2013-03-29 10:44:00,69.1,57.7,30.12,NW,315,4.0,7.0,67,0.00,,,0.00,meteohub,2013-03-29 17:44:00,
2013-03-29 10:49:00,68.5,56.7,30.12,WNW,293,4.0,7.0,66,0.00,,,0.00,meteohub,2013-03-29 17:49:00,
2013-03-29 10:55:00,67.5,57.4,30.12,WNW,293,8.0,8.0,70,0.00,,,0.00,meteohub,2013-03-29 17:55:00,
2013-03-29 11:00:00,67.1,57.4,30.12,NW,315,8.0,11.0,71,0.00,,,0.00,meteohub,2013-03-29 18:00:00,
2013-03-29 11:05:00,66.7,57.0,30.12,NW,315,8.0,12.0,71,0.00,,,0.00,meteohub,2013-03-29 18:05:00,
2013-03-29 11:10:00,66.9,57.6,30.12,NW,315,5.0,12.0,72,0.00,,,0.00,meteohub,2013-03-29 18:10:00,
2013-03-29 11:15:00,66.9,57.6,30.13,West,270,10.0,10.0,72,0.00,,,0.00,meteohub,2013-03-29 18:15:00,
2013-03-29 11:20:00,67.3,57.6,30.13,NW,315,10.0,10.0,71,0.00,,,0.00,meteohub,2013-03-29 18:20:00,
2013-03-29 11:25:00,67.3,57.6,30.13,West,270,7.0,10.0,71,0.00,,,0.00,meteohub,2013-03-29 18:25:00,
2013-03-29 11:30:00,67.6,57.9,30.13,West,270,5.0,10.0,71,0.00,,,0.00,meteohub,2013-03-29 18:30:00,
2013-03-29 11:35:00,66.7,57.4,30.13,WSW,248,8.0,11.0,72,0.00,,,0.00,meteohub,2013-03-29 18:35:00,
2013-03-29 11:40:00,66.9,57.6,30.13,West,270,10.0,11.0,72,0.00,,,0.00,meteohub,2013-03-29 18:40:00,
2013-03-29 11:45:00,66.6,57.6,30.13,NW,315,9.0,11.0,73,0.00,,,0.00,meteohub,2013-03-29 18:45:00,
2013-03-29 11:50:00,66.6,57.6,30.13,NW,315,10.0,11.0,73,0.00,,,0.00,meteohub,2013-03-29 18:50:00,
2013-03-29 11:55:00,66.2,57.2,30.13,West,270,8.0,11.0,73,0.00,,,0.00,meteohub,2013-03-29 18:55:00,
2013-03-29 12:00:00,67.3,57.9,30.12,West,270,9.0,11.0,72,0.00,,,0.00,meteohub,2013-03-29 19:00:00,
2013-03-29 12:05:00,68.0,57.9,30.12,NW,315,5.0,11.0,70,0.00,,,0.00,meteohub,2013-03-29 19:05:00,
2013-03-29 12:10:00,68.2,58.5,30.12,WNW,293,8.0,10.0,71,0.00,,,0.00,meteohub,2013-03-29 19:10:00,
2013-03-29 12:15:00,68.0,57.4,30.12,NW,315,11.0,11.0,69,0.00,,,0.00,meteohub,2013-03-29 19:15:00,
2013-03-29 12:20:00,67.8,58.1,30.12,NW,315,5.0,11.0,71,0.00,,,0.00,meteohub,2013-03-29 19:20:00,
2013-03-29 12:25:00,68.2,58.1,30.12,NW,315,11.0,11.0,70,0.00,,,0.00,meteohub,2013-03-29 19:25:00,
2013-03-29 12:30:00,67.3,57.9,30.12,WNW,293,9.0,15.0,72,0.00,,,0.00,meteohub,2013-03-29 19:30:00,
2013-03-29 12:35:00,66.6,57.6,30.12,West,270,11.0,15.0,73,0.00,,,0.00,meteohub,2013-03-29 19:35:00,
2013-03-29 12:40:00,66.6,57.6,30.11,West,270,11.0,15.0,73,0.00,,,0.00,meteohub,2013-03-29 19:40:00,
2013-03-29 12:45:00,66.4,57.4,30.11,WNW,293,10.0,12.0,73,0.00,,,0.00,meteohub,2013-03-29 19:45:00,
2013-03-29 12:50:00,66.7,57.7,30.11,West,270,7.0,11.0,73,0.00,,,0.00,meteohub,2013-03-29 19:50:00,
2013-03-29 12:55:00,68.0,58.6,30.11,NW,315,4.0,11.0,72,0.00,,,0.00,meteohub,2013-03-29 19:55:00,
2013-03-29 13:00:00,67.1,57.4,30.11,West,270,9.0,10.0,71,0.00,,,0.00,meteohub,2013-03-29 20:00:00,
2013-03-29 13:05:00,66.7,57.7,30.11,NW,315,9.0,13.0,73,0.00,,,0.00,meteohub,2013-03-29 20:05:00,
2013-03-29 13:10:00,67.6,57.9,30.10,West,270,11.0,13.0,71,0.00,,,0.00,meteohub,2013-03-29 20:10:00,
2013-03-29 13:16:00,66.9,57.6,30.10,West,270,8.0,13.0,72,0.00,,,0.00,meteohub,2013-03-29 20:16:00,
2013-03-29 13:21:00,67.1,57.4,30.10,NW,315,8.0,11.0,71,0.00,,,0.00,meteohub,2013-03-29 20:21:00,
2013-03-29 13:26:00,66.7,57.4,30.09,NW,315,8.0,11.0,72,0.00,,,0.00,meteohub,2013-03-29 20:26:00,
2013-03-29 13:31:00,66.9,57.6,30.09,West,270,10.0,10.0,72,0.00,,,0.00,meteohub,2013-03-29 20:31:00,
2013-03-29 13:36:00,66.9,57.2,30.09,NW,315,9.0,10.0,71,0.00,,,0.00,meteohub,2013-03-29 20:36:00,
2013-03-29 13:41:00,67.1,57.4,30.09,West,270,9.0,10.0,71,0.00,,,0.00,meteohub,2013-03-29 20:41:00,
2013-03-29 13:46:00,67.5,57.7,30.09,NW,315,6.0,10.0,71,0.00,,,0.00,meteohub,2013-03-29 20:46:00,
2013-03-29 13:51:00,66.4,57.0,30.09,NW,315,8.0,11.0,72,0.00,,,0.00,meteohub,2013-03-29 20:51:00,
2013-03-29 13:56:00,66.7,57.4,30.09,NW,315,8.0,11.0,72,0.00,,,0.00,meteohub,2013-03-29 20:56:00,
2013-03-29 14:01:00,66.6,57.2,30.09,NW,315,11.0,14.0,72,0.00,,,0.00,meteohub,2013-03-29 21:01:00,
2013-03-29 14:06:00,66.4,57.0,30.09,North,0,12.0,14.0,72,0.00,,,0.00,meteohub,2013-03-29 21:06:00,
2013-03-29 14:11:00,65.8,57.0,30.09,WNW,293,11.0,14.0,73,0.00,,,0.00,meteohub,2013-03-29 21:11:00,
2013-03-29 14:16:00,66.0,57.2,30.09,NW,315,8.0,13.0,73,0.00,,,0.00,meteohub,2013-03-29 21:16:00,
2013-03-29 14:22:00,66.2,56.8,30.09,NW,315,11.0,13.0,72,0.00,,,0.00,meteohub,2013-03-29 21:22:00,
2013-03-29 14:27:00,66.0,57.2,30.08,WNW,293,12.0,13.0,73,0.00,,,0.00,meteohub,2013-03-29 21:27:00,
2013-03-29 14:32:00,64.9,56.5,30.08,NW,315,12.0,12.0,74,0.00,,,0.00,meteohub,2013-03-29 21:32:00,
2013-03-29 14:37:00,64.2,56.5,30.08,SW,225,12.0,14.0,76,0.00,,,0.00,meteohub,2013-03-29 21:37:00,
2013-03-29 14:42:00,64.0,56.7,30.08,NW,315,11.0,14.0,77,0.00,,,0.00,meteohub,2013-03-29 21:42:00,
2013-03-29 14:47:00,63.9,56.8,30.08,West,270,11.0,13.0,78,0.00,,,0.00,meteohub,2013-03-29 21:47:00,
2013-03-29 14:52:00,63.7,56.7,30.08,WNW,293,10.0,14.0,78,0.00,,,0.00,meteohub,2013-03-29 21:52:00,
2013-03-29 14:57:00,63.5,56.5,30.09,NW,315,16.0,16.0,78,0.00,,,0.00,meteohub,2013-03-29 21:57:00,
2013-03-29 15:02:00,63.5,56.8,30.08,West,270,11.0,16.0,79,0.00,,,0.00,meteohub,2013-03-29 22:02:00,
2013-03-29 15:07:00,63.7,57.0,30.08,WNW,293,9.0,16.0,79,0.00,,,0.00,meteohub,2013-03-29 22:07:00,
2013-03-29 15:12:00,64.4,57.0,30.08,NW,315,11.0,16.0,77,0.00,,,0.00,meteohub,2013-03-29 22:12:00,
2013-03-29 15:17:00,64.6,56.8,30.08,West,270,11.0,15.0,76,0.00,,,0.00,meteohub,2013-03-29 22:17:00,
2013-03-29 15:22:00,65.5,57.4,30.08,NW,315,8.0,15.0,75,0.00,,,0.00,meteohub,2013-03-29 22:22:00,
2013-03-29 15:27:00,65.3,57.2,30.08,West,270,10.0,14.0,75,0.00,,,0.00,meteohub,2013-03-29 22:27:00,
2013-03-29 15:32:00,65.3,57.2,30.08,West,270,8.0,14.0,75,0.00,,,0.00,meteohub,2013-03-29 22:32:00,
2013-03-29 15:37:00,65.3,56.8,30.07,West,270,9.0,14.0,74,0.00,,,0.00,meteohub,2013-03-29 22:37:00,
2013-03-29 15:42:00,65.3,56.8,30.07,West,270,11.0,14.0,74,0.00,,,0.00,meteohub,2013-03-29 22:42:00,
2013-03-29 15:47:00,65.3,56.5,30.07,West,270,10.0,13.0,73,0.00,,,0.00,meteohub,2013-03-29 22:47:00,
2013-03-29 15:52:00,65.5,57.0,30.07,NW,315,10.0,11.0,74,0.00,,,0.00,meteohub,2013-03-29 22:52:00,
2013-03-29 15:57:00,65.5,57.0,30.07,West,270,9.0,11.0,74,0.00,,,0.00,meteohub,2013-03-29 22:57:00,
2013-03-29 16:02:00,65.5,57.4,30.07,West,270,8.0,12.0,75,0.00,,,0.00,meteohub,2013-03-29 23:02:00,
2013-03-29 16:07:00,65.5,57.4,30.07,West,270,11.0,12.0,75,0.00,,,0.00,meteohub,2013-03-29 23:07:00,
2013-03-29 16:12:00,65.3,57.2,30.06,NNW,338,11.0,13.0,75,0.00,,,0.00,meteohub,2013-03-29 23:12:00,
2013-03-29 16:17:00,65.1,57.0,30.07,West,270,8.0,13.0,75,0.00,,,0.00,meteohub,2013-03-29 23:17:00,
2013-03-29 16:22:00,64.9,56.5,30.07,West,270,11.0,13.0,74,0.00,,,0.00,meteohub,2013-03-29 23:22:00,
2013-03-29 16:27:00,64.6,56.8,30.06,WSW,248,8.0,11.0,76,0.00,,,0.00,meteohub,2013-03-29 23:27:00,
2013-03-29 16:32:00,64.6,56.8,30.06,West,270,8.0,11.0,76,0.00,,,0.00,meteohub,2013-03-29 23:32:00,
2013-03-29 16:37:00,64.2,56.5,30.06,West,270,9.0,11.0,76,0.00,,,0.00,meteohub,2013-03-29 23:37:00,
2013-03-29 16:42:00,64.6,56.8,30.06,West,270,6.0,10.0,76,0.00,,,0.00,meteohub,2013-03-29 23:42:00,
2013-03-29 16:48:00,64.4,56.3,30.06,West,270,6.0,10.0,75,0.00,,,0.00,meteohub,2013-03-29 23:48:00,
2013-03-29 16:53:00,63.9,56.5,30.06,NW,315,11.0,11.0,77,0.00,,,0.00,meteohub,2013-03-29 23:53:00,
2013-03-29 16:58:00,62.4,56.1,30.06,NW,315,11.0,11.0,80,0.00,,,0.00,meteohub,2013-03-29 23:58:00,
2013-03-29 17:03:00,61.3,56.1,30.06,NW,315,11.0,13.0,83,0.00,,,0.00,meteohub,2013-03-30 00:03:00,
2013-03-29 17:08:00,60.8,56.7,30.07,West,270,13.0,14.0,86,0.00,,,0.00,meteohub,2013-03-30 00:08:00,
2013-03-29 17:13:00,60.4,56.5,30.06,West,270,9.0,14.0,87,0.00,,,0.00,meteohub,2013-03-30 00:13:00,
2013-03-29 17:18:00,60.3,56.7,30.07,West,270,12.0,15.0,88,0.00,,,0.00,meteohub,2013-03-30 00:18:00,
2013-03-29 17:23:00,60.4,56.8,30.06,West,270,9.0,15.0,88,0.00,,,0.00,meteohub,2013-03-30 00:23:00,
2013-03-29 17:28:00,60.6,57.0,30.06,West,270,8.0,12.0,88,0.00,,,0.00,meteohub,2013-03-30 00:28:00,
2013-03-29 17:33:00,60.6,57.0,30.06,NW,315,11.0,12.0,88,0.00,,,0.00,meteohub,2013-03-30 00:33:00,
2013-03-29 17:38:00,61.2,57.2,30.06,West,270,6.0,11.0,87,0.00,,,0.00,meteohub,2013-03-30 00:38:00,
2013-03-29 17:43:00,61.5,57.0,30.06,West,270,4.0,11.0,85,0.00,,,0.00,meteohub,2013-03-30 00:43:00,
2013-03-29 17:48:00,61.7,56.8,30.06,West,270,5.0,11.0,84,0.00,,,0.00,meteohub,2013-03-30 00:48:00,
2013-03-29 17:53:00,61.9,56.7,30.06,West,270,7.0,9.0,83,0.00,,,0.00,meteohub,2013-03-30 00:53:00,
2013-03-29 17:58:00,62.1,56.5,30.06,West,270,2.0,8.0,82,0.00,,,0.00,meteohub,2013-03-30 00:58:00,
2013-03-29 18:03:00,62.1,56.5,30.06,West,270,5.0,8.0,82,0.00,,,0.00,meteohub,2013-03-30 01:03:00,
2013-03-29 18:08:00,62.1,56.5,30.07,West,270,8.0,8.0,82,0.00,,,0.00,meteohub,2013-03-30 01:08:00,
2013-03-29 18:13:00,61.9,56.3,30.07,West,270,7.0,8.0,82,0.00,,,0.00,meteohub,2013-03-30 01:13:00,
2013-03-29 18:18:00,61.5,56.3,30.06,West,270,7.0,8.0,83,0.00,,,0.00,meteohub,2013-03-30 01:18:00,
2013-03-29 18:23:00,61.5,56.7,30.07,West,270,8.0,8.0,84,0.00,,,0.00,meteohub,2013-03-30 01:23:00,
2013-03-29 18:28:00,61.5,57.0,30.07,NW,315,8.0,8.0,85,0.00,,,0.00,meteohub,2013-03-30 01:28:00,
2013-03-29 18:33:00,61.7,57.2,30.08,NW,315,4.0,10.0,85,0.00,,,0.00,meteohub,2013-03-30 01:33:00,
2013-03-29 18:38:00,62.1,56.1,30.07,North,0,4.0,10.0,81,0.00,,,0.00,meteohub,2013-03-30 01:38:00,
2013-03-29 18:43:00,61.9,55.6,30.07,North,0,5.0,10.0,80,0.00,,,0.00,meteohub,2013-03-30 01:43:00,
2013-03-29 18:48:00,61.7,55.4,30.07,NE,45,4.0,7.0,80,0.00,,,0.00,meteohub,2013-03-30 01:48:00,
2013-03-29 18:53:00,61.3,55.4,30.08,North,0,5.0,7.0,81,0.00,,,0.00,meteohub,2013-03-30 01:53:00,
2013-03-29 18:59:00,61.0,55.4,30.08,NE,45,3.0,7.0,82,0.00,,,0.00,meteohub,2013-03-30 01:59:00,
2013-03-29 19:04:00,60.8,55.2,30.08,North,0,6.0,6.0,82,0.00,,,0.00,meteohub,2013-03-30 02:04:00,
2013-03-29 19:09:00,60.4,55.2,30.09,North,0,5.0,6.0,83,0.00,,,0.00,meteohub,2013-03-30 02:09:00,
2013-03-29 19:14:00,59.9,55.0,30.08,NE,45,4.0,6.0,84,0.00,,,0.00,meteohub,2013-03-30 02:14:00,
2013-03-29 19:19:00,59.7,55.2,30.09,NE,45,3.0,6.0,85,0.00,,,0.00,meteohub,2013-03-30 02:19:00,
2013-03-29 19:24:00,59.4,55.2,30.09,NE,45,3.0,6.0,86,0.00,,,0.00,meteohub,2013-03-30 02:24:00,
2013-03-29 19:29:00,59.0,54.9,30.09,NE,45,2.0,6.0,86,0.00,,,0.00,meteohub,2013-03-30 02:29:00,
2013-03-29 19:34:00,58.8,55.0,30.10,NE,45,2.0,5.0,87,0.00,,,0.00,meteohub,2013-03-30 02:34:00,
2013-03-29 19:39:00,58.6,55.0,30.10,North,0,1.0,5.0,88,0.00,,,0.00,meteohub,2013-03-30 02:39:00,
2013-03-29 19:41:00,58.5,54.9,30.10,North,0,2.0,4.0,88,0.00,,,0.00,meteohub,2013-03-30 02:41:00,
2013-03-29 19:47:00,58.3,54.7,30.10,North,0,3.0,4.0,88,0.00,,,0.00,meteohub,2013-03-30 02:47:00,
2013-03-29 19:56:00,58.3,55.9,30.10,NW,315,6.0,6.0,92,0.00,,,0.00,meteohub,2013-03-30 02:56:00,
2013-03-29 20:01:00,58.1,55.8,30.11,NW,315,8.0,8.0,92,0.00,,,0.00,meteohub,2013-03-30 03:01:00,
2013-03-29 20:06:00,57.7,55.8,30.10,WNW,293,6.0,8.0,93,0.00,,,0.00,meteohub,2013-03-30 03:06:00,
2013-03-29 20:11:00,57.6,55.8,30.11,NW,315,4.0,8.0,94,0.00,,,0.00,meteohub,2013-03-30 03:11:00,
2013-03-29 20:16:00,57.6,55.8,30.12,West,270,5.0,8.0,94,0.00,,,0.00,meteohub,2013-03-30 03:16:00,
2013-03-29 20:22:00,57.4,55.6,30.12,NW,315,6.0,8.0,94,0.00,,,0.00,meteohub,2013-03-30 03:22:00,
2013-03-29 20:27:00,57.2,55.8,30.12,West,270,3.0,7.0,95,0.00,,,0.00,meteohub,2013-03-30 03:27:00,
2013-03-29 20:32:00,57.0,55.9,30.12,West,270,4.0,7.0,96,0.00,,,0.00,meteohub,2013-03-30 03:32:00,
2013-03-29 20:37:00,56.8,55.8,30.12,NW,315,4.0,8.0,96,0.00,,,0.00,meteohub,2013-03-30 03:37:00,
2013-03-29 20:42:00,56.8,55.8,30.12,WNW,293,5.0,8.0,96,0.00,,,0.00,meteohub,2013-03-30 03:42:00,
2013-03-29 20:47:00,56.7,55.6,30.12,NW,315,2.0,8.0,96,0.00,,,0.00,meteohub,2013-03-30 03:47:00,
2013-03-29 20:52:00,56.5,55.6,30.12,NW,315,3.0,6.0,97,0.00,,,0.00,meteohub,2013-03-30 03:52:00,
2013-03-29 20:57:00,56.3,55.4,30.12,South,180,4.0,5.0,97,0.00,,,0.00,meteohub,2013-03-30 03:57:00,
2013-03-29 21:00:00,56.3,55.4,30.12,South,180,2.0,5.0,97,0.00,,,0.00,meteohub,2013-03-30 04:00:00,
2013-03-29 21:06:00,56.3,55.4,30.13,South,180,2.0,4.0,97,0.00,,,0.00,meteohub,2013-03-30 04:06:00,
2013-03-29 21:11:00,56.5,55.9,30.13,SW,225,2.0,4.0,98,0.00,,,0.00,meteohub,2013-03-30 04:11:00,
2013-03-29 21:16:00,56.5,55.9,30.13,WNW,293,3.0,4.0,98,0.00,,,0.00,meteohub,2013-03-30 04:16:00,
2013-03-29 21:21:00,56.5,55.9,30.13,West,270,4.0,4.0,98,0.00,,,0.00,meteohub,2013-03-30 04:21:00,
2013-03-29 21:26:00,56.5,55.9,30.14,SW,225,3.0,4.0,98,0.00,,,0.00,meteohub,2013-03-30 04:26:00,
2013-03-29 21:31:00,56.5,55.9,30.14,West,270,4.0,4.0,98,0.00,,,0.00,meteohub,2013-03-30 04:31:00,
2013-03-29 21:36:00,56.7,56.1,30.13,West,270,3.0,5.0,98,0.00,,,0.00,meteohub,2013-03-30 04:36:00,
2013-03-29 21:41:00,56.7,56.1,30.13,West,270,4.0,5.0,98,0.00,,,0.00,meteohub,2013-03-30 04:41:00,
2013-03-29 21:46:00,56.7,56.1,30.13,South,180,4.0,5.0,98,0.00,,,0.00,meteohub,2013-03-30 04:46:00,
2013-03-29 21:52:00,56.7,56.1,30.13,NW,315,3.0,5.0,98,0.00,,,0.00,meteohub,2013-03-30 04:52:00,
2013-03-29 21:57:00,56.7,55.8,30.13,SSE,158,0.0,5.0,97,0.00,,,0.00,meteohub,2013-03-30 04:57:00,
2013-03-29 22:02:00,56.7,55.8,30.13,South,180,2.0,5.0,97,0.00,,,0.00,meteohub,2013-03-30 05:02:00,
2013-03-29 22:07:00,56.7,55.8,30.13,South,180,2.0,4.0,97,0.00,,,0.00,meteohub,2013-03-30 05:07:00,
2013-03-29 22:12:00,56.7,55.8,30.13,South,180,2.0,3.0,97,0.00,,,0.00,meteohub,2013-03-30 05:12:00,
2013-03-29 22:17:00,56.5,55.6,30.13,South,180,2.0,3.0,97,0.00,,,0.00,meteohub,2013-03-30 05:17:00,
2013-03-29 22:22:00,56.5,55.9,30.13,SE,135,3.0,3.0,98,0.00,,,0.00,meteohub,2013-03-30 05:22:00,
2013-03-29 22:27:00,56.7,55.8,30.13,South,180,2.0,5.0,97,0.00,,,0.00,meteohub,2013-03-30 05:27:00,
2013-03-29 22:32:00,56.5,55.6,30.13,South,180,2.0,5.0,97,0.00,,,0.00,meteohub,2013-03-30 05:32:00,
2013-03-29 22:37:00,56.3,55.4,30.13,South,180,2.0,5.0,97,0.00,,,0.00,meteohub,2013-03-30 05:37:00,
2013-03-29 22:42:00,56.3,55.4,30.13,South,180,2.0,3.0,97,0.00,,,0.00,meteohub,2013-03-30 05:42:00,
2013-03-29 22:47:00,56.3,55.4,30.13,NW,315,0.0,3.0,97,0.00,,,0.00,meteohub,2013-03-30 05:47:00,
2013-03-29 22:52:00,56.3,55.4,30.13,NW,315,0.0,3.0,97,0.00,,,0.00,meteohub,2013-03-30 05:52:00,
2013-03-29 22:57:00,56.3,55.4,30.12,NW,315,0.0,3.0,97,0.00,,,0.00,meteohub,2013-03-30 05:57:00,
2013-03-29 23:02:00,56.3,55.4,30.13,NW,315,0.0,2.0,97,0.00,,,0.00,meteohub,2013-03-30 06:02:00,
2013-03-29 23:07:00,56.5,55.6,30.13,NW,315,3.0,3.0,97,0.00,,,0.00,meteohub,2013-03-30 06:07:00,
2013-03-29 23:12:00,56.7,56.1,30.13,NW,315,4.0,4.0,98,0.00,,,0.00,meteohub,2013-03-30 06:12:00,
2013-03-29 23:17:00,56.8,55.9,30.13,NW,315,6.0,6.0,97,0.00,,,0.00,meteohub,2013-03-30 06:17:00,
2013-03-29 23:22:00,57.0,56.1,30.13,NW,315,4.0,6.0,97,0.00,,,0.00,meteohub,2013-03-30 06:22:00,
2013-03-29 23:27:00,57.0,55.9,30.13,NW,315,2.0,6.0,96,0.00,,,0.00,meteohub,2013-03-30 06:27:00,
2013-03-29 23:32:00,57.0,55.9,30.13,NW,315,2.0,6.0,96,0.00,,,0.00,meteohub,2013-03-30 06:32:00,
2013-03-29 23:37:00,57.0,55.9,30.13,NW,315,2.0,4.0,96,0.00,,,0.00,meteohub,2013-03-30 06:37:00,
2013-03-29 23:42:00,57.0,55.9,30.13,West,270,3.0,4.0,96,0.00,,,0.00,meteohub,2013-03-30 06:42:00,
2013-03-29 23:47:00,57.0,55.9,30.14,WNW,293,3.0,4.0,96,0.00,,,0.00,meteohub,2013-03-30 06:47:00,
2013-03-29 23:52:00,57.2,56.1,30.14,NW,315,4.0,5.0,96,0.00,,,0.00,meteohub,2013-03-30 06:52:00,
2013-03-29 23:57:00,57.2,56.1,30.14,NW,315,4.0,5.0,96,0.00,,,0.00,meteohub,2013-03-30 06:57:00,